Time;durP1;ratioP1;P1;durP2;ratioP2;P2;SDS_P1;SDS_P2;PMS_P1;PMS_P2;Temp;Humidity;BMP_temperature;BMP_pressure;BME280_temperature;BME280_humidity;BME280_pressure;Samples;Min_cycle;Max_cycle;Signal;HPM_P1;HPM_P2
2022/10/30 00:01:01;;;;;;;15.13;9.07;;;18.50;67.10;;;;;;5089534;28;20456;-89
2022/10/30 00:03:28;;;;;;;102.63;13.07;;;18.50;67.20;;;;;;5090350;28;20448;-88
2022/10/30 00:05:54;;;;;;;55.33;11.53;;;18.60;66.60;;;;;;5092996;28;20461;-89
2022/10/30 00:08:24;;;;;;;79.70;11.17;;;18.50;66.90;;;;;;5089498;28;20469;-88
2022/10/30 00:10:51;;;;;;;45.50;11.10;;;18.40;67.50;;;;;;5081289;28;20450;-89
2022/10/30 00:13:20;;;;;;;30.03;11.63;;;18.40;67.30;;;;;;5079754;28;20940;-88
2022/10/30 00:15:50;;;;;;;60.50;13.10;;;18.60;67.30;;;;;;5091226;28;20981;-90
2022/10/30 00:18:18;;;;;;;105.70;14.70;;;18.50;67.30;;;;;;5073109;28;20463;-89
2022/10/30 00:20:45;;;;;;;76.13;13.57;;;18.40;67.60;;;;;;5076091;28;20730;-88
2022/10/30 00:23:12;;;;;;;50.57;13.13;;;18.50;67.70;;;;;;5075404;28;20523;-88
2022/10/30 00:25:39;;;;;;;78.37;14.47;;;18.60;67.30;;;;;;5075320;28;20479;-88
2022/10/30 00:28:07;;;;;;;55.90;13.57;;;18.50;67.20;;;;;;5089071;28;20516;-89
2022/10/30 00:30:34;;;;;;;40.53;12.77;;;18.40;67.80;;;;;;5088336;28;20444;-88
2022/10/30 00:33:04;;;;;;;43.47;12.03;;;18.50;67.60;;;;;;5090705;28;20447;-88
2022/10/30 00:35:31;;;;;;;103.83;14.50;;;18.60;67.50;;;;;;5088805;28;20432;-88
2022/10/30 00:37:59;;;;;;;31.53;11.50;;;18.40;68.00;;;;;;5072765;28;20462;-88
2022/10/30 00:40:26;;;;;;;51.53;12.47;;;18.40;67.90;;;;;;5089551;28;20542;-88
2022/10/30 00:42:55;;;;;;;101.43;13.90;;;18.40;67.40;;;;;;5071777;28;20455;-88
2022/10/30 00:45:22;;;;;;;43.77;13.50;;;18.30;67.20;;;;;;5075257;28;20475;-89
2022/10/30 00:47:54;;;;;;;57.70;12.00;;;18.30;67.90;;;;;;5091830;27;20509;-88
2022/10/30 00:50:25;;;;;;;58.60;12.00;;;18.40;67.60;;;;;;5070707;27;20444;-88
2022/10/30 00:52:56;;;;;;;42.17;11.67;;;18.30;67.20;;;;;;5093794;27;20467;-88
2022/10/30 00:55:30;;;;;;;54.70;12.67;;;18.20;67.90;;;;;;5098321;27;20450;-89
2022/10/30 00:57:59;;;;;;;59.27;13.40;;;18.30;67.60;;;;;;5065387;28;20481;-89
2022/10/30 01:00:29;;;;;;;19.37;11.73;;;18.30;67.30;;;;;;5050123;28;20450;-88
2022/10/30 01:02:57;;;;;;;22.37;10.30;;;18.40;67.20;;;;;;5051080;28;20464;-88
2022/10/30 01:05:28;;;;;;;14.33;10.90;;;18.40;66.90;;;;;;5085444;27;20472;-88
2022/10/30 01:07:55;;;;;;;21.47;9.20;;;18.50;66.90;;;;;;5050466;28;20469;-88
2022/10/30 01:10:23;;;;;;;14.00;10.07;;;18.60;66.70;;;;;;5039698;28;20447;-89
2022/10/30 01:12:52;;;;;;;14.80;8.00;;;18.60;66.20;;;;;;5066446;27;20448;-89
2022/10/30 01:15:24;;;;;;;13.20;7.70;;;18.60;65.30;;;;;;5073294;28;20448;-88
2022/10/30 01:18:02;;;;;;;8.60;7.77;;;18.40;65.90;;;;;;5075528;28;20472;-89
2022/10/30 01:21:01;;;;;;;35.77;9.87;;;18.50;65.90;;;;;;5066240;28;20451;-88
2022/10/30 01:23:38;;;;;;;16.70;7.87;;;18.40;65.80;;;;;;5076895;28;20455;-88
2022/10/30 01:26:15;;;;;;;23.97;8.80;;;18.40;66.00;;;;;;5067873;28;20830;-88
2022/10/30 01:29:02;;;;;;;22.67;8.47;;;18.30;66.40;;;;;;5067841;28;20479;-88
2022/10/30 01:31:43;;;;;;;26.47;8.60;;;18.30;66.40;;;;;;5063764;27;20525;-88
2022/10/30 01:34:18;;;;;;;27.20;8.77;;;18.20;67.00;;;;;;5068058;28;21217;-89
2022/10/30 01:36:54;;;;;;;32.00;9.33;;;18.30;67.60;;;;;;5042084;28;21053;-88
2022/10/30 01:39:24;;;;;;;40.87;8.60;;;18.40;66.80;;;;;;5068575;27;20448;-88
2022/10/30 01:41:52;;;;;;;17.47;8.13;;;18.40;66.50;;;;;;5061259;28;20456;-88
2022/10/30 01:44:24;;;;;;;19.13;8.33;;;18.30;67.40;;;;;;5050754;28;20597;-88
2022/10/30 01:47:11;;;;;;;36.00;9.57;;;18.40;66.70;;;;;;5084346;28;20586;-88
2022/10/30 01:50:13;;;;;;;49.40;8.93;;;18.30;66.70;;;;;;5077603;28;20543;-88
2022/10/30 01:52:49;;;;;;;27.20;8.93;;;18.20;67.10;;;;;;5061504;27;20938;-89
2022/10/30 01:55:28;;;;;;;42.60;10.00;;;18.30;66.80;;;;;;5090407;28;20451;-89
2022/10/30 01:58:02;;;;;;;24.23;8.80;;;18.00;67.20;;;;;;5062003;28;20469;-88
2022/10/30 02:00:29;;;;;;;10.33;8.07;;;18.00;67.80;;;;;;5051963;27;20454;-89
2022/10/30 02:02:56;;;;;;;10.17;7.93;;;18.10;67.30;;;;;;5067375;28;20448;-88
2022/10/30 02:05:30;;;;;;;35.03;9.83;;;18.20;66.80;;;;;;5058887;27;21046;-89
2022/10/30 02:07:58;;;;;;;30.80;7.73;;;18.40;66.50;;;;;;5076319;28;20549;-89
2022/10/30 02:10:27;;;;;;;11.47;8.90;;;18.40;65.90;;;;;;5062591;27;20445;-88
2022/10/30 02:12:54;;;;;;;28.43;7.97;;;18.50;65.80;;;;;;5047541;28;20443;-88
2022/10/30 02:15:24;;;;;;;18.87;9.17;;;18.40;66.10;;;;;;5084146;27;20530;-88
2022/10/30 02:17:51;;;;;;;16.43;9.43;;;18.40;66.20;;;;;;5050187;28;21225;-88
2022/10/30 02:20:20;;;;;;;10.03;8.00;;;18.30;66.30;;;;;;5075077;28;20449;-88
2022/10/30 02:22:48;;;;;;;13.73;8.10;;;18.20;66.30;;;;;;5065403;28;21164;-88
2022/10/30 02:25:15;;;;;;;15.20;8.83;;;18.10;66.70;;;;;;5074289;28;20480;-88
2022/10/30 02:27:42;;;;;;;10.13;7.90;;;18.10;66.70;;;;;;5071165;28;20482;-89
2022/10/30 02:30:12;;;;;;;12.40;8.03;;;18.10;66.60;;;;;;5058769;27;21000;-88
2022/10/30 02:32:39;;;;;;;10.40;7.20;;;18.20;65.70;;;;;;5064276;28;21029;-87
2022/10/30 02:35:06;;;;;;;13.60;6.83;;;17.60;66.60;;;;;;5083112;28;20482;-89
2022/10/30 02:37:35;;;;;;;11.10;7.53;;;17.20;68.00;;;;;;5042306;27;20467;-90
2022/10/30 02:40:02;;;;;;;9.63;7.40;;;17.00;69.50;;;;;;5059443;28;21134;-88
2022/10/30 02:42:30;;;;;;;13.43;8.40;;;17.30;69.00;;;;;;5062247;28;20503;-89
2022/10/30 02:44:57;;;;;;;36.97;9.40;;;17.50;68.60;;;;;;5064686;28;21105;-89
2022/10/30 02:47:25;;;;;;;8.93;7.80;;;17.40;69.10;;;;;;5083833;28;20490;-87
2022/10/30 02:49:52;;;;;;;33.57;7.77;;;17.50;69.00;;;;;;5083363;27;20490;-88
2022/10/30 02:52:20;;;;;;;24.27;7.60;;;17.50;68.20;;;;;;5052715;27;20442;-89
2022/10/30 02:54:48;;;;;;;16.87;8.47;;;17.50;68.40;;;;;;5072121;28;20452;-87
2022/10/30 02:57:15;;;;;;;13.70;8.10;;;17.60;69.00;;;;;;5055953;28;20459;-88
2022/10/30 02:59:44;;;;;;;38.43;8.73;;;17.60;67.40;;;;;;5036346;28;20485;-89
2022/10/30 03:02:11;;;;;;;16.13;7.30;;;17.30;68.70;;;;;;5058083;27;20508;-89
2022/10/30 03:04:38;;;;;;;22.90;9.07;;;17.40;68.60;;;;;;5056688;27;21277;-88
2022/10/30 03:07:05;;;;;;;39.03;9.10;;;17.40;68.60;;;;;;5057146;28;20476;-88
2022/10/30 03:09:32;;;;;;;46.10;10.70;;;17.60;67.90;;;;;;5053549;28;20460;-89
2022/10/30 03:12:00;;;;;;;13.13;7.80;;;17.50;68.20;;;;;;5072936;28;20447;-88
2022/10/30 03:14:27;;;;;;;32.73;8.73;;;17.40;68.90;;;;;;5075483;27;20487;-89
2022/10/30 03:16:54;;;;;;;53.90;11.00;;;17.50;68.80;;;;;;5059368;28;20550;-89
2022/10/30 03:19:21;;;;;;;23.47;9.00;;;17.70;68.10;;;;;;5090141;27;20546;-88
2022/10/30 03:21:48;;;;;;;25.73;8.07;;;17.70;68.20;;;;;;5058705;27;20554;-89
2022/10/30 03:24:16;;;;;;;28.07;7.20;;;17.90;67.80;;;;;;5073557;28;20450;-89
2022/10/30 03:26:45;;;;;;;21.93;7.10;;;17.90;67.40;;;;;;5055908;28;20475;-88
2022/10/30 03:29:13;;;;;;;24.47;8.37;;;17.90;67.10;;;;;;5075795;28;20439;-89
2022/10/30 03:31:40;;;;;;;39.20;8.63;;;18.00;67.10;;;;;;5059215;28;20531;-89
2022/10/30 03:34:33;;;;;;;13.50;8.17;;;17.90;66.70;;;;;;5085716;28;20589;-88
2022/10/30 03:37:04;;;;;;;27.70;8.80;;;17.70;67.40;;;;;;5073755;28;20463;-87
2022/10/30 03:39:31;;;;;;;39.90;9.33;;;17.80;67.40;;;;;;5060091;28;20524;-88
2022/10/30 03:41:58;;;;;;;33.63;8.03;;;17.90;67.10;;;;;;5089742;27;20436;-89
2022/10/30 03:44:27;;;;;;;51.03;9.87;;;18.10;66.90;;;;;;5077789;28;20476;-88
2022/10/30 03:46:57;;;;;;;54.57;9.40;;;18.00;66.60;;;;;;5081262;28;21019;-89
2022/10/30 03:49:28;;;;;;;33.13;11.00;;;18.00;66.50;;;;;;5090277;28;20677;-89
2022/10/30 03:51:56;;;;;;;80.80;10.83;;;17.80;66.70;;;;;;5082134;28;20543;-89
2022/10/30 03:54:25;;;;;;;93.20;13.70;;;17.70;67.30;;;;;;5066104;28;20459;-87
2022/10/30 03:56:52;;;;;;;16.10;8.20;;;17.80;67.20;;;;;;5072954;28;20466;-89
2022/10/30 03:59:20;;;;;;;27.23;9.17;;;17.90;67.00;;;;;;5076912;28;20460;-89
2022/10/30 04:02:14;;;;;;;27.93;9.80;;;17.90;67.10;;;;;;5082564;28;20448;-88
2022/10/30 04:04:42;;;;;;;27.97;10.70;;;17.80;67.50;;;;;;5074513;28;20518;-87
2022/10/30 04:07:09;;;;;;;46.37;10.37;;;17.80;67.00;;;;;;5067200;28;20470;-89
2022/10/30 04:09:36;;;;;;;33.50;9.63;;;17.60;66.90;;;;;;5090770;28;20443;-89
2022/10/30 04:12:03;;;;;;;42.93;10.20;;;17.60;67.50;;;;;;5092827;28;20918;-89
2022/10/30 04:14:30;;;;;;;56.60;10.60;;;17.70;67.30;;;;;;5066425;28;20984;-88
2022/10/30 04:16:57;;;;;;;15.20;8.70;;;17.70;67.40;;;;;;5073126;28;20469;-88
2022/10/30 04:19:26;;;;;;;23.37;9.07;;;17.80;67.10;;;;;;5089208;28;21030;-87
2022/10/30 04:21:53;;;;;;;19.57;8.40;;;17.80;67.10;;;;;;5073024;27;20475;-89
2022/10/30 04:24:20;;;;;;;42.07;10.07;;;17.90;67.70;;;;;;5058815;28;20495;-88
2022/10/30 04:26:51;;;;;;;27.00;10.20;;;17.80;66.50;;;;;;5079096;28;20474;-88
2022/10/30 04:29:18;;;;;;;22.60;10.00;;;17.70;67.20;;;;;;5074744;27;20543;-88
2022/10/30 04:31:46;;;;;;;44.00;9.50;;;17.70;67.20;;;;;;5079527;28;20460;-87
2022/10/30 04:34:13;;;;;;;48.87;9.43;;;17.60;67.70;;;;;;5093030;27;20450;-88
2022/10/30 04:36:42;;;;;;;29.43;11.30;;;17.70;67.60;;;;;;5082528;28;20530;-88
2022/10/30 04:39:10;;;;;;;34.93;8.97;;;17.70;67.20;;;;;;5079244;27;20484;-89
2022/10/30 04:41:37;;;;;;;41.60;9.50;;;17.70;67.10;;;;;;5101088;27;20445;-88
2022/10/30 04:44:12;;;;;;;32.60;10.40;;;17.70;67.10;;;;;;5086275;28;20455;-89
2022/10/30 04:46:40;;;;;;;36.03;9.20;;;17.70;66.80;;;;;;5093348;27;20500;-89
2022/10/30 04:49:09;;;;;;;34.17;8.90;;;17.60;67.10;;;;;;5080633;28;20488;-88
2022/10/30 04:51:36;;;;;;;21.10;8.47;;;17.40;67.90;;;;;;5074758;27;20458;-89
2022/10/30 04:54:07;;;;;;;21.13;10.07;;;17.50;67.90;;;;;;5078226;27;20435;-89
2022/10/30 04:56:35;;;;;;;17.83;8.70;;;17.70;67.60;;;;;;5078422;28;20953;-89
2022/10/30 04:59:03;;;;;;;28.67;10.70;;;17.70;67.30;;;;;;5095973;27;20551;-89
2022/10/30 05:01:31;;;;;;;43.73;9.20;;;17.60;66.40;;;;;;5085340;27;20558;-88
2022/10/30 05:03:58;;;;;;;20.13;8.30;;;17.60;66.70;;;;;;5084732;28;20438;-88
2022/10/30 05:06:29;;;;;;;41.43;10.60;;;17.50;67.20;;;;;;5084704;28;20450;-89
2022/10/30 05:08:57;;;;;;;78.20;10.40;;;17.10;68.50;;;;;;5068620;27;20446;-89
2022/10/30 05:11:44;;;;;;;27.40;9.30;;;17.20;68.30;;;;;;5066911;28;20550;-87
2022/10/30 05:14:12;;;;;;;19.43;8.83;;;17.10;68.60;;;;;;5067733;27;20448;-88
2022/10/30 05:16:39;;;;;;;56.23;8.77;;;17.30;68.20;;;;;;5062330;27;20443;-89
2022/10/30 05:19:06;;;;;;;33.47;8.53;;;17.40;67.60;;;;;;5096554;27;20505;-89
2022/10/30 05:21:34;;;;;;;24.83;9.10;;;17.40;67.50;;;;;;5102852;27;21212;-88
2022/10/30 05:24:02;;;;;;;45.33;8.17;;;17.60;67.40;;;;;;5075878;28;20516;-87
2022/10/30 05:26:35;;;;;;;25.67;8.23;;;17.70;67.10;;;;;;5078307;28;20455;-89
2022/10/30 05:29:04;;;;;;;19.23;10.17;;;17.70;66.90;;;;;;5076588;27;20550;-90
2022/10/30 05:31:31;;;;;;;19.10;8.50;;;17.60;67.20;;;;;;5083555;28;20444;-89
2022/10/30 05:34:16;;;;;;;18.53;9.30;;;17.70;67.30;;;;;;5092373;27;20454;-89
2022/10/30 05:36:46;;;;;;;19.50;8.70;;;17.50;67.10;;;;;;5074561;28;20838;-89
2022/10/30 05:39:14;;;;;;;17.60;7.73;;;17.20;68.30;;;;;;5086433;27;20777;-88
2022/10/30 05:41:44;;;;;;;17.00;7.73;;;17.30;68.00;;;;;;5072563;27;20756;-88
2022/10/30 05:44:13;;;;;;;32.03;8.97;;;17.30;68.40;;;;;;5090782;27;20467;-89
2022/10/30 05:46:42;;;;;;;17.50;7.43;;;17.40;67.30;;;;;;5078954;28;20446;-89
2022/10/30 05:49:22;;;;;;;17.60;8.40;;;17.50;67.60;;;;;;5062397;28;20451;-89
2022/10/30 05:51:49;;;;;;;13.40;8.37;;;17.60;68.10;;;;;;5074155;28;20454;-89
2022/10/30 05:54:16;;;;;;;23.13;8.07;;;17.40;67.20;;;;;;5092532;27;20973;-89
2022/10/30 05:56:58;;;;;;;31.10;8.77;;;17.40;67.30;;;;;;5084893;27;20872;-89
2022/10/30 05:59:26;;;;;;;14.20;8.57;;;17.40;67.50;;;;;;5084370;27;20455;-87
2022/10/30 06:01:53;;;;;;;11.60;7.03;;;17.30;67.80;;;;;;5077653;28;20452;-89
2022/10/30 06:04:20;;;;;;;16.23;7.93;;;17.40;67.60;;;;;;5100051;27;20451;-88
2022/10/30 06:06:48;;;;;;;16.60;7.30;;;17.50;67.50;;;;;;5073504;28;20491;-89
2022/10/30 06:09:15;;;;;;;15.60;8.10;;;17.40;67.60;;;;;;5067546;28;21197;-89
2022/10/30 06:11:54;;;;;;;8.13;7.30;;;17.50;67.50;;;;;;5092771;27;20458;-89
2022/10/30 06:14:31;;;;;;;13.13;7.60;;;17.60;67.20;;;;;;5096809;27;20447;-89
2022/10/30 06:16:58;;;;;;;12.63;7.17;;;17.40;67.10;;;;;;5093270;27;21192;-87
2022/10/30 06:19:43;;;;;;;17.30;7.33;;;17.20;67.50;;;;;;5095065;27;20455;-90
2022/10/30 06:22:24;;;;;;;10.23;7.23;;;17.10;68.00;;;;;;5079478;28;20455;-88
2022/10/30 06:25:09;;;;;;;19.90;7.77;;;17.20;67.90;;;;;;5079012;28;20446;-89
2022/10/30 06:27:50;;;;;;;22.23;9.33;;;17.50;67.70;;;;;;5090540;27;20475;-89
2022/10/30 06:30:20;;;;;;;13.97;8.07;;;17.60;67.50;;;;;;5092210;27;21130;-88
2022/10/30 06:32:47;;;;;;;11.63;6.90;;;17.60;67.20;;;;;;5067554;27;20522;-88
2022/10/30 06:35:14;;;;;;;26.23;8.17;;;17.50;67.10;;;;;;5094359;27;20904;-89
2022/10/30 06:37:46;;;;;;;18.83;8.77;;;17.40;67.30;;;;;;5078924;28;20458;-87
2022/10/30 06:40:13;;;;;;;28.47;7.93;;;17.50;67.20;;;;;;5094677;27;20443;-89
2022/10/30 06:43:04;;;;;;;25.23;8.73;;;17.60;66.80;;;;;;5074288;28;20451;-88
2022/10/30 06:45:37;;;;;;;12.03;7.70;;;17.60;67.00;;;;;;5066666;28;20460;-91
2022/10/30 06:48:05;;;;;;;49.60;9.70;;;17.60;67.10;;;;;;5086040;27;20470;-93
2022/10/30 06:50:37;;;;;;;28.00;8.33;;;17.70;66.70;;;;;;5066632;28;20443;-90
2022/10/30 06:53:04;;;;;;;19.73;8.27;;;17.60;66.70;;;;;;5108122;27;21028;-92
2022/10/30 06:55:31;;;;;;;31.07;9.70;;;17.50;67.20;;;;;;5085827;28;21225;-92
2022/10/30 06:58:19;;;;;;;16.80;8.43;;;17.50;67.20;;;;;;5089571;27;20553;-88
2022/10/30 07:01:08;;;;;;;22.13;8.40;;;17.20;67.50;;;;;;5065779;27;20454;-89
2022/10/30 07:03:56;;;;;;;39.67;11.27;;;17.20;67.80;;;;;;5075253;28;20854;-91
2022/10/30 07:06:23;;;;;;;29.10;9.07;;;17.10;68.30;;;;;;5078024;28;20486;-89
2022/10/30 07:08:51;;;;;;;39.43;9.27;;;17.10;68.50;;;;;;5062705;27;20826;-89
2022/10/30 07:11:18;;;;;;;29.70;9.70;;;16.90;68.40;;;;;;5070699;28;20445;-88
2022/10/30 07:14:04;;;;;;;38.83;15.20;;;16.80;69.10;;;;;;5087347;27;20458;-88
2022/10/30 07:16:36;;;;;;;141.50;49.80;;;17.00;69.00;;;;;;5097637;28;20447;-91
2022/10/30 07:19:03;;;;;;;35.73;15.33;;;17.20;68.30;;;;;;5075124;28;20962;-90
2022/10/30 07:21:31;;;;;;;14.43;9.20;;;17.30;67.80;;;;;;5075630;28;20436;-90
2022/10/30 07:23:58;;;;;;;49.00;9.80;;;17.30;67.90;;;;;;5089015;28;20451;-89
2022/10/30 07:26:32;;;;;;;29.63;8.93;;;17.30;67.90;;;;;;5074489;28;20939;-90
2022/10/30 07:29:04;;;;;;;19.47;8.10;;;17.30;67.90;;;;;;5075456;28;20551;-91
2022/10/30 07:31:45;;;;;;;55.33;11.03;;;17.40;67.90;;;;;;5081108;28;21061;-88
2022/10/30 07:34:31;;;;;;;33.20;9.43;;;17.40;67.70;;;;;;5096277;27;21176;-88
2022/10/30 07:37:17;;;;;;;24.40;8.60;;;17.40;67.70;;;;;;5086358;28;20875;-90
2022/10/30 07:40:06;;;;;;;33.60;9.40;;;17.30;67.70;;;;;;5091082;28;20446;-89
2022/10/30 07:42:56;;;;;;;20.53;11.37;;;17.10;68.40;;;;;;5092384;28;20447;-90
2022/10/30 07:45:38;;;;;;;49.30;10.93;;;17.00;69.00;;;;;;5080303;28;20463;-89
2022/10/30 07:48:30;;;;;;;14.10;7.33;;;16.70;70.00;;;;;;5077136;28;20482;-90
2022/10/30 07:51:06;;;;;;;26.77;10.17;;;16.80;70.20;;;;;;5080865;28;20458;-91
2022/10/30 07:53:33;;;;;;;55.73;9.53;;;17.10;69.50;;;;;;5079772;28;20448;-90
2022/10/30 07:56:01;;;;;;;40.50;10.20;;;17.10;69.00;;;;;;5060008;28;20439;-90
2022/10/30 07:58:54;;;;;;;48.13;10.17;;;16.90;68.70;;;;;;5093018;27;20488;-90
2022/10/30 08:01:53;;;;;;;51.80;10.57;;;16.80;69.40;;;;;;5078499;27;20443;-90
2022/10/30 08:04:44;;;;;;;57.27;9.40;;;16.60;70.00;;;;;;5093201;27;20820;-91
2022/10/30 08:07:32;;;;;;;22.53;7.37;;;16.50;70.60;;;;;;5077258;28;20464;-90
2022/10/30 08:09:59;;;;;;;14.13;8.23;;;16.80;70.40;;;;;;5069067;27;20864;-89
2022/10/30 08:12:27;;;;;;;89.97;39.97;;;17.10;70.00;;;;;;5085362;28;20451;-90
2022/10/30 08:14:54;;;;;;;39.67;12.27;;;17.30;68.50;;;;;;5099504;27;20479;-89
2022/10/30 08:17:22;;;;;;;20.47;11.30;;;17.30;68.30;;;;;;5067182;28;20575;-92
2022/10/30 08:19:51;;;;;;;83.47;15.47;;;17.50;68.20;;;;;;5077297;28;20449;-90
2022/10/30 08:22:18;;;;;;;16.23;9.33;;;17.50;67.40;;;;;;5081270;28;20443;-89
2022/10/30 08:24:52;;;;;;;24.70;18.20;;;17.40;67.90;;;;;;5072075;28;20445;-89
2022/10/30 08:27:19;;;;;;;70.33;31.23;;;17.60;68.00;;;;;;5064716;28;20478;-89
2022/10/30 08:29:46;;;;;;;59.87;21.20;;;17.70;67.60;;;;;;5064567;28;20989;-89
2022/10/30 08:32:13;;;;;;;28.10;12.60;;;17.80;67.60;;;;;;5079904;27;20890;-89
2022/10/30 08:35:09;;;;;;;26.47;12.40;;;17.90;67.80;;;;;;5061875;28;20447;-89
2022/10/30 08:37:37;;;;;;;23.50;11.80;;;17.80;67.60;;;;;;5108996;27;20523;-89
2022/10/30 08:40:06;;;;;;;51.30;13.80;;;17.80;67.60;;;;;;5097857;27;20551;-89
2022/10/30 08:42:51;;;;;;;25.73;10.50;;;17.50;67.90;;;;;;5075131;28;20443;-90
2022/10/30 08:45:19;;;;;;;16.27;10.50;;;17.30;68.50;;;;;;5076000;28;20938;-90
2022/10/30 08:48:04;;;;;;;21.97;9.40;;;17.30;68.80;;;;;;5066303;28;20467;-89
2022/10/30 08:50:37;;;;;;;15.87;9.77;;;17.10;69.60;;;;;;5085657;28;20448;-88
2022/10/30 08:53:06;;;;;;;17.73;10.77;;;17.40;69.30;;;;;;5077027;28;21024;-89
2022/10/30 08:55:35;;;;;;;24.70;9.50;;;17.50;68.40;;;;;;5073604;27;20439;-89
2022/10/30 08:58:04;;;;;;;12.70;8.70;;;17.50;68.60;;;;;;5059351;28;20536;-89
2022/10/30 09:00:31;;;;;;;23.83;10.50;;;17.70;68.30;;;;;;5086493;28;21249;-90
2022/10/30 09:03:18;;;;;;;16.40;10.40;;;17.80;67.90;;;;;;5090607;28;20455;-90
2022/10/30 09:06:14;;;;;;;16.43;9.73;;;17.80;67.70;;;;;;5096719;27;20548;-91
2022/10/30 09:09:10;;;;;;;17.20;10.20;;;17.90;67.80;;;;;;5091683;27;20950;-91
2022/10/30 09:11:43;;;;;;;18.07;12.27;;;17.70;68.40;;;;;;5079216;28;20975;-90
2022/10/30 09:14:10;;;;;;;44.67;22.40;;;17.60;68.50;;;;;;5082431;27;20497;-89
2022/10/30 09:16:37;;;;;;;32.13;19.70;;;17.90;68.20;;;;;;5096230;27;20475;-90
2022/10/30 09:19:04;;;;;;;24.40;13.30;;;18.00;67.40;;;;;;5086297;28;21160;-89
2022/10/30 09:21:32;;;;;;;16.47;11.90;;;18.20;67.50;;;;;;5094061;27;20547;-90
2022/10/30 09:24:00;;;;;;;46.37;20.87;;;18.20;67.30;;;;;;5093020;28;20459;-90
2022/10/30 09:26:37;;;;;;;20.97;13.37;;;18.20;66.50;;;;;;5095684;27;20457;-91
2022/10/30 09:29:12;;;;;;;21.77;15.13;;;18.30;66.70;;;;;;5094160;28;20467;-91
2022/10/30 09:31:59;;;;;;;19.37;12.10;;;18.10;67.20;;;;;;5098638;27;21253;-91
2022/10/30 09:34:29;;;;;;;27.50;16.70;;;18.00;67.60;;;;;;5065191;28;20937;-90
2022/10/30 09:37:05;;;;;;;26.57;13.50;;;18.00;67.90;;;;;;5080517;27;20519;-90
2022/10/30 09:39:36;;;;;;;20.23;11.63;;;18.00;68.00;;;;;;5080090;28;20473;-90
2022/10/30 09:42:47;;;;;;;21.50;14.20;;;18.00;68.40;;;;;;5087163;28;21127;-90
2022/10/30 09:45:46;;;;;;;26.50;15.03;;;18.20;68.10;;;;;;5023305;27;20456;-90
2022/10/30 09:48:42;;;;;;;24.67;14.83;;;18.30;67.50;;;;;;5083162;27;20471;-89
2022/10/30 09:51:30;;;;;;;23.13;12.73;;;18.30;66.90;;;;;;5063517;28;20453;-90
2022/10/30 09:54:09;;;;;;;23.20;12.50;;;18.00;67.70;;;;;;5093649;27;21009;-89
2022/10/30 09:56:46;;;;;;;24.97;16.60;;;18.20;68.00;;;;;;5078670;28;20490;-90
2022/10/30 09:59:28;;;;;;;32.43;13.80;;;18.30;67.60;;;;;;5085333;28;20443;-90
2022/10/30 10:02:01;;;;;;;25.23;14.70;;;18.10;67.70;;;;;;5067665;27;20459;-89
2022/10/30 10:04:40;;;;;;;32.37;12.10;;;17.70;69.50;;;;;;5079477;27;21033;-91
2022/10/30 10:07:20;;;;;;;38.27;20.40;;;17.60;69.40;;;;;;5097629;27;20463;-90
2022/10/30 10:10:15;;;;;;;31.13;16.60;;;17.60;70.20;;;;;;5065699;28;20472;-89
2022/10/30 10:12:56;;;;;;;21.97;15.03;;;17.70;70.60;;;;;;5078772;28;20888;-90
2022/10/30 10:15:34;;;;;;;25.47;16.10;;;18.00;69.50;;;;;;5092756;27;20446;-90
2022/10/30 10:18:04;;;;;;;31.03;19.03;;;18.30;69.00;;;;;;5085473;28;20501;-90
2022/10/30 10:20:37;;;;;;;30.30;17.30;;;18.10;68.80;;;;;;5094714;27;20439;-90
2022/10/30 10:23:14;;;;;;;27.03;17.43;;;18.20;68.80;;;;;;5096655;27;20534;-91
2022/10/30 10:25:49;;;;;;;35.10;23.03;;;18.10;68.90;;;;;;5077652;28;20439;-91
2022/10/30 10:28:45;;;;;;;25.37;15.60;;;17.90;69.90;;;;;;5095767;27;20466;-89
2022/10/30 10:31:24;;;;;;;33.97;14.87;;;18.20;69.50;;;;;;5070826;27;20465;-90
2022/10/30 10:34:06;;;;;;;24.43;14.80;;;18.20;69.30;;;;;;5095543;28;20451;-89
2022/10/30 10:36:40;;;;;;;27.73;15.93;;;18.30;69.20;;;;;;5080691;28;20432;-91
2022/10/30 10:39:31;;;;;;;32.27;15.93;;;18.30;69.60;;;;;;5096250;28;20438;-90
2022/10/30 10:42:13;;;;;;;26.73;17.63;;;18.10;69.50;;;;;;5097722;28;20447;-90
2022/10/30 10:44:54;;;;;;;30.67;15.73;;;18.30;69.60;;;;;;5092066;28;20447;-90
2022/10/30 10:47:54;;;;;;;28.50;16.37;;;18.50;69.10;;;;;;5095699;28;20468;-90
2022/10/30 10:50:25;;;;;;;28.90;18.13;;;18.60;68.90;;;;;;5080344;28;20555;-90
2022/10/30 10:52:57;;;;;;;32.57;18.53;;;18.70;68.40;;;;;;5093680;28;20453;-90
2022/10/30 10:55:31;;;;;;;47.83;27.73;;;18.50;68.40;;;;;;5093334;27;20949;-90
2022/10/30 10:58:06;;;;;;;32.43;20.40;;;18.60;69.40;;;;;;5098677;27;20902;-90
2022/10/30 11:00:34;;;;;;;25.57;16.27;;;18.70;69.00;;;;;;5093754;27;20538;-88
2022/10/30 11:03:06;;;;;;;35.27;18.87;;;18.80;68.70;;;;;;5094837;27;20966;-89
2022/10/30 11:05:37;;;;;;;25.07;16.80;;;18.90;68.70;;;;;;5085386;27;20508;-90
2022/10/30 11:08:13;;;;;;;40.70;18.93;;;19.10;68.40;;;;;;5090784;28;20498;-90
2022/10/30 11:10:40;;;;;;;32.50;18.20;;;18.80;68.30;;;;;;5094156;27;20526;-90
2022/10/30 11:13:11;;;;;;;32.30;20.00;;;18.60;69.40;;;;;;5078926;28;20517;-90
2022/10/30 11:15:49;;;;;;;40.80;21.93;;;18.70;70.00;;;;;;5083636;28;20800;-90
2022/10/30 11:18:16;;;;;;;46.43;26.00;;;19.10;69.40;;;;;;5094801;27;20550;-91
2022/10/30 11:20:51;;;;;;;37.63;19.60;;;19.20;68.50;;;;;;5090239;27;20827;-90
2022/10/30 11:23:33;;;;;;;45.10;22.50;;;19.30;68.50;;;;;;5079220;28;21262;-90
2022/10/30 11:26:01;;;;;;;50.93;25.33;;;19.10;68.80;;;;;;5102172;28;20485;-89
2022/10/30 11:28:38;;;;;;;54.03;29.47;;;19.00;69.00;;;;;;5101451;28;20463;-89
2022/10/30 11:31:23;;;;;;;43.70;23.53;;;18.90;69.50;;;;;;5084258;28;20989;-90
2022/10/30 11:33:51;;;;;;;39.70;22.80;;;19.20;69.40;;;;;;5079294;28;20447;-88
2022/10/30 11:36:22;;;;;;;43.00;22.17;;;19.30;68.80;;;;;;5075519;28;20447;-90
2022/10/30 11:38:49;;;;;;;42.77;22.07;;;19.20;69.10;;;;;;5093200;28;20536;-89
2022/10/30 11:41:16;;;;;;;37.17;19.97;;;19.30;69.00;;;;;;5077249;28;20454;-89
2022/10/30 11:43:47;;;;;;;38.10;21.57;;;19.50;68.90;;;;;;5107921;27;20444;-90
2022/10/30 11:46:22;;;;;;;41.00;24.47;;;19.70;68.40;;;;;;5090457;28;20922;-89
2022/10/30 11:48:53;;;;;;;40.63;20.23;;;19.90;68.10;;;;;;5094102;28;20470;-90
2022/10/30 11:51:33;;;;;;;33.83;20.90;;;20.10;67.70;;;;;;5076798;28;20941;-90
2022/10/30 11:54:01;;;;;;;42.27;21.27;;;19.90;67.20;;;;;;5101530;28;20455;-89
2022/10/30 11:56:30;;;;;;;38.20;22.40;;;19.80;68.90;;;;;;5067016;28;20455;-90
2022/10/30 11:59:01;;;;;;;38.80;22.60;;;19.80;68.70;;;;;;5092772;28;20431;-90
2022/10/30 12:01:29;;;;;;;37.83;21.83;;;20.00;67.70;;;;;;5078505;28;20448;-90
2022/10/30 12:04:12;;;;;;;41.70;22.90;;;20.10;67.40;;;;;;5099654;28;20453;-90
2022/10/30 12:06:39;;;;;;;43.63;25.20;;;20.40;67.40;;;;;;5097112;28;20546;-90
2022/10/30 12:09:13;;;;;;;36.43;22.40;;;20.60;66.50;;;;;;5062612;28;20874;-90
2022/10/30 12:11:43;;;;;;;34.60;21.83;;;20.80;65.50;;;;;;5073189;28;20533;-90
2022/10/30 12:14:18;;;;;;;36.83;21.20;;;20.70;65.80;;;;;;5091551;28;20824;-89
2022/10/30 12:16:48;;;;;;;38.50;21.77;;;20.80;65.70;;;;;;5090759;28;20444;-89
2022/10/30 12:19:16;;;;;;;33.80;21.40;;;20.90;65.40;;;;;;5092044;28;20439;-89
2022/10/30 12:21:47;;;;;;;31.17;20.33;;;20.90;65.30;;;;;;5093169;28;20451;-89
2022/10/30 12:24:18;;;;;;;33.97;20.30;;;21.00;65.10;;;;;;5098287;28;20439;-89
2022/10/30 12:26:49;;;;;;;35.47;23.30;;;20.80;65.30;;;;;;5075509;28;20948;-90
2022/10/30 12:29:21;;;;;;;29.10;18.67;;;20.70;66.40;;;;;;5095064;28;21389;-90
2022/10/30 12:31:55;;;;;;;33.00;22.13;;;20.60;66.40;;;;;;5083041;28;20461;-89
2022/10/30 12:34:38;;;;;;;28.07;19.70;;;20.60;66.30;;;;;;5092716;28;20443;-89
2022/10/30 12:37:13;;;;;;;30.53;20.63;;;20.50;66.60;;;;;;5092825;28;20458;-90
2022/10/30 12:39:53;;;;;;;35.57;21.87;;;20.40;67.20;;;;;;5093545;28;20450;-90
2022/10/30 12:42:21;;;;;;;35.63;20.20;;;20.50;67.50;;;;;;5093908;28;20900;-90
2022/10/30 12:44:55;;;;;;;46.60;30.23;;;20.60;66.80;;;;;;5094284;27;20520;-88
2022/10/30 12:47:28;;;;;;;31.57;19.10;;;20.40;67.30;;;;;;5078119;28;20467;-90
2022/10/30 12:50:00;;;;;;;34.07;20.67;;;20.40;67.30;;;;;;5097348;28;20474;-90
2022/10/30 12:52:34;;;;;;;32.60;19.30;;;20.40;67.70;;;;;;5079938;28;21223;-90
2022/10/30 12:55:08;;;;;;;31.13;20.90;;;20.60;67.30;;;;;;5096364;27;20475;-88
2022/10/30 12:57:40;;;;;;;28.47;20.40;;;20.90;67.00;;;;;;5095719;27;20573;-90
2022/10/30 13:00:13;;;;;;;30.77;21.20;;;21.00;66.20;;;;;;5093690;27;20563;-89